sensor_id;sensor_type;location;lat;lon;timestamp;P1;durP1;ratioP1;P2;durP2;ratioP2
68449;SDS011;55434;39.570;2.652;2023-02-01T00:01:53;14.38;;;4.90;;
68449;SDS011;55434;39.570;2.652;2023-02-01T00:04:19;12.65;;;5.20;;
68449;SDS011;55434;39.570;2.652;2023-02-01T00:06:45;11.18;;;4.47;;
68449;SDS011;55434;39.570;2.652;2023-02-01T00:09:11;11.97;;;4.80;;
68449;SDS011;55434;39.570;2.652;2023-02-01T00:11:37;11.32;;;4.22;;
68449;SDS011;55434;39.570;2.652;2023-02-01T00:14:02;12.67;;;4.47;;
68449;SDS011;55434;39.570;2.652;2023-02-01T00:16:29;11.95;;;4.22;;
68449;SDS011;55434;39.570;2.652;2023-02-01T00:18:59;13.13;;;4.37;;
68449;SDS011;55434;39.570;2.652;2023-02-01T00:21:30;10.98;;;3.90;;
68449;SDS011;55434;39.570;2.652;2023-02-01T00:23:56;14.57;;;3.97;;
68449;SDS011;55434;39.570;2.652;2023-02-01T00:26:27;9.85;;;3.70;;
68449;SDS011;55434;39.570;2.652;2023-02-01T00:28:57;8.73;;;3.40;;
68449;SDS011;55434;39.570;2.652;2023-02-01T00:31:23;10.00;;;3.60;;
68449;SDS011;55434;39.570;2.652;2023-02-01T00:33:49;10.80;;;3.47;;
68449;SDS011;55434;39.570;2.652;2023-02-01T00:36:15;9.00;;;3.20;;
68449;SDS011;55434;39.570;2.652;2023-02-01T00:38:41;11.55;;;3.65;;
68449;SDS011;55434;39.570;2.652;2023-02-01T00:41:16;8.60;;;3.50;;
68449;SDS011;55434;39.570;2.652;2023-02-01T00:43:45;11.90;;;3.67;;
68449;SDS011;55434;39.570;2.652;2023-02-01T00:46:12;10.00;;;3.60;;
68449;SDS011;55434;39.570;2.652;2023-02-01T00:48:39;10.57;;;3.10;;
68449;SDS011;55434;39.570;2.652;2023-02-01T00:51:08;12.30;;;3.65;;
68449;SDS011;55434;39.570;2.652;2023-02-01T00:53:36;13.57;;;3.90;;
68449;SDS011;55434;39.570;2.652;2023-02-01T00:56:05;9.73;;;3.70;;
68449;SDS011;55434;39.570;2.652;2023-02-01T00:58:32;13.87;;;4.10;;
68449;SDS011;55434;39.570;2.652;2023-02-01T01:01:06;11.55;;;3.85;;
68449;SDS011;55434;39.570;2.652;2023-02-01T01:03:44;12.95;;;4.32;;
68449;SDS011;55434;39.570;2.652;2023-02-01T01:06:13;14.05;;;3.80;;
68449;SDS011;55434;39.570;2.652;2023-02-01T01:08:41;14.48;;;4.00;;
68449;SDS011;55434;39.570;2.652;2023-02-01T01:11:08;13.57;;;3.97;;
68449;SDS011;55434;39.570;2.652;2023-02-01T01:13:36;12.82;;;3.67;;
68449;SDS011;55434;39.570;2.652;2023-02-01T01:16:02;10.52;;;3.60;;
68449;SDS011;55434;39.570;2.652;2023-02-01T01:18:30;14.48;;;4.45;;
68449;SDS011;55434;39.570;2.652;2023-02-01T01:20:56;12.83;;;3.87;;
68449;SDS011;55434;39.570;2.652;2023-02-01T01:23:22;10.60;;;3.55;;
68449;SDS011;55434;39.570;2.652;2023-02-01T01:25:48;10.85;;;4.22;;
68449;SDS011;55434;39.570;2.652;2023-02-01T01:28:14;11.30;;;3.20;;
68449;SDS011;55434;39.570;2.652;2023-02-01T01:30:40;9.45;;;3.17;;
68449;SDS011;55434;39.570;2.652;2023-02-01T01:33:05;12.30;;;3.63;;
68449;SDS011;55434;39.570;2.652;2023-02-01T01:35:32;10.82;;;3.38;;
68449;SDS011;55434;39.570;2.652;2023-02-01T01:37:58;10.50;;;3.13;;
68449;SDS011;55434;39.570;2.652;2023-02-01T01:40:25;10.07;;;3.00;;
68449;SDS011;55434;39.570;2.652;2023-02-01T01:42:51;10.20;;;2.97;;
68449;SDS011;55434;39.570;2.652;2023-02-01T01:45:33;10.68;;;2.95;;
68449;SDS011;55434;39.570;2.652;2023-02-01T01:48:01;10.10;;;3.60;;
68449;SDS011;55434;39.570;2.652;2023-02-01T01:50:35;8.83;;;2.97;;
68449;SDS011;55434;39.570;2.652;2023-02-01T01:53:06;12.20;;;3.58;;
68449;SDS011;55434;39.570;2.652;2023-02-01T01:55:37;8.93;;;3.13;;
68449;SDS011;55434;39.570;2.652;2023-02-01T01:58:09;8.63;;;2.92;;
68449;SDS011;55434;39.570;2.652;2023-02-01T02:00:37;11.63;;;3.17;;
68449;SDS011;55434;39.570;2.652;2023-02-01T02:03:07;11.17;;;2.50;;
68449;SDS011;55434;39.570;2.652;2023-02-01T02:05:39;9.13;;;2.60;;
68449;SDS011;55434;39.570;2.652;2023-02-01T02:08:05;9.55;;;3.17;;
68449;SDS011;55434;39.570;2.652;2023-02-01T02:10:31;8.20;;;2.77;;
68449;SDS011;55434;39.570;2.652;2023-02-01T02:13:36;8.65;;;2.53;;
68449;SDS011;55434;39.570;2.652;2023-02-01T02:21:15;10.90;;;2.60;;
68449;SDS011;55434;39.570;2.652;2023-02-01T02:32:21;6.53;;;2.05;;
68449;SDS011;55434;39.570;2.652;2023-02-01T02:35:00;7.95;;;2.40;;
68449;SDS011;55434;39.570;2.652;2023-02-01T02:43:11;6.70;;;2.20;;
68449;SDS011;55434;39.570;2.652;2023-02-01T02:46:12;10.13;;;2.17;;
68449;SDS011;55434;39.570;2.652;2023-02-01T02:49:19;10.32;;;2.30;;
68449;SDS011;55434;39.570;2.652;2023-02-01T02:52:05;10.10;;;2.20;;
68449;SDS011;55434;39.570;2.652;2023-02-01T02:55:19;8.90;;;1.88;;
68449;SDS011;55434;39.570;2.652;2023-02-01T02:57:45;10.95;;;2.35;;
68449;SDS011;55434;39.570;2.652;2023-02-01T03:00:31;8.85;;;2.88;;
68449;SDS011;55434;39.570;2.652;2023-02-01T03:03:17;8.25;;;1.73;;
68449;SDS011;55434;39.570;2.652;2023-02-01T03:06:02;8.37;;;1.80;;
68449;SDS011;55434;39.570;2.652;2023-02-01T03:08:30;8.10;;;1.90;;
68449;SDS011;55434;39.570;2.652;2023-02-01T03:10:58;8.55;;;1.85;;
68449;SDS011;55434;39.570;2.652;2023-02-01T03:16:20;7.82;;;1.83;;
68449;SDS011;55434;39.570;2.652;2023-02-01T03:21:40;7.57;;;2.00;;
68449;SDS011;55434;39.570;2.652;2023-02-01T03:24:10;6.55;;;1.83;;
68449;SDS011;55434;39.570;2.652;2023-02-01T03:26:41;7.25;;;1.63;;
68449;SDS011;55434;39.570;2.652;2023-02-01T03:29:14;10.20;;;2.05;;
68449;SDS011;55434;39.570;2.652;2023-02-01T03:31:48;8.97;;;1.70;;
68449;SDS011;55434;39.570;2.652;2023-02-01T03:34:15;9.88;;;2.22;;
68449;SDS011;55434;39.570;2.652;2023-02-01T03:36:52;8.23;;;1.48;;
68449;SDS011;55434;39.570;2.652;2023-02-01T03:41:53;7.25;;;1.40;;
68449;SDS011;55434;39.570;2.652;2023-02-01T03:44:24;7.43;;;1.60;;
68449;SDS011;55434;39.570;2.652;2023-02-01T03:47:12;6.47;;;1.40;;
68449;SDS011;55434;39.570;2.652;2023-02-01T03:49:41;6.35;;;1.45;;
68449;SDS011;55434;39.570;2.652;2023-02-01T03:52:16;8.50;;;1.50;;
68449;SDS011;55434;39.570;2.652;2023-02-01T03:54:45;10.32;;;2.35;;
68449;SDS011;55434;39.570;2.652;2023-02-01T03:57:12;7.83;;;1.40;;
68449;SDS011;55434;39.570;2.652;2023-02-01T03:59:42;6.68;;;1.30;;
68449;SDS011;55434;39.570;2.652;2023-02-01T04:02:10;7.90;;;1.27;;
68449;SDS011;55434;39.570;2.652;2023-02-01T04:04:36;6.28;;;1.20;;
68449;SDS011;55434;39.570;2.652;2023-02-01T04:07:03;7.45;;;1.20;;
68449;SDS011;55434;39.570;2.652;2023-02-01T04:09:29;8.87;;;1.63;;
68449;SDS011;55434;39.570;2.652;2023-02-01T04:11:54;9.15;;;1.52;;
68449;SDS011;55434;39.570;2.652;2023-02-01T04:14:20;6.73;;;1.17;;
68449;SDS011;55434;39.570;2.652;2023-02-01T04:16:46;6.93;;;1.38;;
68449;SDS011;55434;39.570;2.652;2023-02-01T04:19:12;5.85;;;1.35;;
68449;SDS011;55434;39.570;2.652;2023-02-01T04:21:38;9.60;;;1.40;;
68449;SDS011;55434;39.570;2.652;2023-02-01T04:24:03;7.32;;;1.35;;
68449;SDS011;55434;39.570;2.652;2023-02-01T04:26:30;7.00;;;1.30;;
68449;SDS011;55434;39.570;2.652;2023-02-01T04:28:55;5.68;;;1.33;;
68449;SDS011;55434;39.570;2.652;2023-02-01T04:31:21;5.90;;;1.20;;
68449;SDS011;55434;39.570;2.652;2023-02-01T04:33:57;9.45;;;1.77;;
68449;SDS011;55434;39.570;2.652;2023-02-01T04:36:49;6.50;;;1.30;;
68449;SDS011;55434;39.570;2.652;2023-02-01T04:39:14;8.50;;;1.97;;
68449;SDS011;55434;39.570;2.652;2023-02-01T04:41:40;7.95;;;1.65;;
68449;SDS011;55434;39.570;2.652;2023-02-01T04:44:06;7.03;;;1.77;;
68449;SDS011;55434;39.570;2.652;2023-02-01T04:46:31;8.38;;;1.30;;
68449;SDS011;55434;39.570;2.652;2023-02-01T04:48:57;6.60;;;1.63;;
68449;SDS011;55434;39.570;2.652;2023-02-01T04:51:23;9.82;;;1.80;;
68449;SDS011;55434;39.570;2.652;2023-02-01T04:53:48;9.43;;;1.93;;
68449;SDS011;55434;39.570;2.652;2023-02-01T04:56:14;7.97;;;1.30;;
68449;SDS011;55434;39.570;2.652;2023-02-01T04:58:40;10.10;;;1.60;;
68449;SDS011;55434;39.570;2.652;2023-02-01T05:01:05;6.85;;;1.40;;
68449;SDS011;55434;39.570;2.652;2023-02-01T05:03:32;8.57;;;1.83;;
68449;SDS011;55434;39.570;2.652;2023-02-01T05:05:58;7.90;;;1.65;;
68449;SDS011;55434;39.570;2.652;2023-02-01T05:08:25;12.60;;;2.08;;
68449;SDS011;55434;39.570;2.652;2023-02-01T05:10:52;7.18;;;1.98;;
68449;SDS011;55434;39.570;2.652;2023-02-01T05:13:18;7.75;;;2.00;;
68449;SDS011;55434;39.570;2.652;2023-02-01T05:16:02;7.77;;;1.63;;
68449;SDS011;55434;39.570;2.652;2023-02-01T05:18:28;8.32;;;1.35;;
68449;SDS011;55434;39.570;2.652;2023-02-01T05:20:53;9.60;;;1.93;;
68449;SDS011;55434;39.570;2.652;2023-02-01T05:23:19;10.50;;;1.67;;
68449;SDS011;55434;39.570;2.652;2023-02-01T05:25:45;10.23;;;1.60;;
68449;SDS011;55434;39.570;2.652;2023-02-01T05:28:10;7.55;;;1.70;;
68449;SDS011;55434;39.570;2.652;2023-02-01T05:30:36;7.13;;;1.43;;
68449;SDS011;55434;39.570;2.652;2023-02-01T05:33:02;7.88;;;1.65;;
68449;SDS011;55434;39.570;2.652;2023-02-01T05:35:28;8.20;;;1.67;;
68449;SDS011;55434;39.570;2.652;2023-02-01T05:37:54;9.93;;;1.70;;
68449;SDS011;55434;39.570;2.652;2023-02-01T05:40:21;11.00;;;2.28;;
68449;SDS011;55434;39.570;2.652;2023-02-01T05:42:46;7.43;;;1.70;;
68449;SDS011;55434;39.570;2.652;2023-02-01T05:45:12;7.25;;;1.75;;
68449;SDS011;55434;39.570;2.652;2023-02-01T05:47:38;9.65;;;1.80;;
68449;SDS011;55434;39.570;2.652;2023-02-01T05:50:04;10.10;;;1.87;;
68449;SDS011;55434;39.570;2.652;2023-02-01T05:52:31;10.30;;;2.15;;
68449;SDS011;55434;39.570;2.652;2023-02-01T05:54:57;8.80;;;1.95;;
68449;SDS011;55434;39.570;2.652;2023-02-01T05:57:23;8.23;;;1.85;;
68449;SDS011;55434;39.570;2.652;2023-02-01T05:59:48;8.70;;;2.10;;
68449;SDS011;55434;39.570;2.652;2023-02-01T06:02:15;12.10;;;1.73;;
68449;SDS011;55434;39.570;2.652;2023-02-01T06:04:43;9.63;;;1.83;;
68449;SDS011;55434;39.570;2.652;2023-02-01T06:07:09;9.13;;;1.90;;
68449;SDS011;55434;39.570;2.652;2023-02-01T06:09:35;9.63;;;2.22;;
68449;SDS011;55434;39.570;2.652;2023-02-01T06:12:02;9.25;;;2.38;;
68449;SDS011;55434;39.570;2.652;2023-02-01T06:14:28;11.20;;;2.80;;
68449;SDS011;55434;39.570;2.652;2023-02-01T06:16:54;12.10;;;2.55;;
68449;SDS011;55434;39.570;2.652;2023-02-01T06:19:21;16.45;;;2.80;;
68449;SDS011;55434;39.570;2.652;2023-02-01T06:21:47;12.30;;;3.17;;
68449;SDS011;55434;39.570;2.652;2023-02-01T06:24:12;9.80;;;2.73;;
68449;SDS011;55434;39.570;2.652;2023-02-01T06:26:38;15.57;;;3.08;;
68449;SDS011;55434;39.570;2.652;2023-02-01T06:29:05;12.53;;;3.47;;
68449;SDS011;55434;39.570;2.652;2023-02-01T06:31:40;12.70;;;3.20;;
68449;SDS011;55434;39.570;2.652;2023-02-01T06:34:07;10.65;;;2.63;;
68449;SDS011;55434;39.570;2.652;2023-02-01T06:36:33;12.18;;;2.60;;
68449;SDS011;55434;39.570;2.652;2023-02-01T06:38:59;11.70;;;2.70;;
68449;SDS011;55434;39.570;2.652;2023-02-01T06:41:25;14.77;;;2.38;;
68449;SDS011;55434;39.570;2.652;2023-02-01T06:43:51;13.38;;;3.35;;
68449;SDS011;55434;39.570;2.652;2023-02-01T06:46:17;11.97;;;2.70;;
68449;SDS011;55434;39.570;2.652;2023-02-01T06:48:43;12.90;;;2.92;;
68449;SDS011;55434;39.570;2.652;2023-02-01T06:51:29;9.60;;;2.90;;
68449;SDS011;55434;39.570;2.652;2023-02-01T06:53:54;14.40;;;3.28;;
68449;SDS011;55434;39.570;2.652;2023-02-01T06:56:20;10.35;;;2.58;;
68449;SDS011;55434;39.570;2.652;2023-02-01T06:58:47;11.93;;;2.97;;
68449;SDS011;55434;39.570;2.652;2023-02-01T07:01:13;9.02;;;2.45;;
68449;SDS011;55434;39.570;2.652;2023-02-01T07:03:39;16.35;;;2.78;;
68449;SDS011;55434;39.570;2.652;2023-02-01T07:06:05;16.45;;;2.97;;
68449;SDS011;55434;39.570;2.652;2023-02-01T07:08:34;15.37;;;3.23;;
68449;SDS011;55434;39.570;2.652;2023-02-01T07:11:05;12.15;;;2.53;;
68449;SDS011;55434;39.570;2.652;2023-02-01T07:13:32;18.27;;;2.92;;
68449;SDS011;55434;39.570;2.652;2023-02-01T07:16:02;17.02;;;2.83;;
68449;SDS011;55434;39.570;2.652;2023-02-01T07:18:33;11.35;;;3.03;;
68449;SDS011;55434;39.570;2.652;2023-02-01T07:20:59;14.50;;;3.07;;
68449;SDS011;55434;39.570;2.652;2023-02-01T07:23:25;14.40;;;2.90;;
68449;SDS011;55434;39.570;2.652;2023-02-01T07:25:53;14.18;;;2.95;;
68449;SDS011;55434;39.570;2.652;2023-02-01T07:28:20;13.10;;;3.22;;
68449;SDS011;55434;39.570;2.652;2023-02-01T07:30:50;20.20;;;3.60;;
68449;SDS011;55434;39.570;2.652;2023-02-01T07:33:19;18.85;;;3.25;;
68449;SDS011;55434;39.570;2.652;2023-02-01T07:35:47;14.45;;;3.90;;
68449;SDS011;55434;39.570;2.652;2023-02-01T07:38:13;13.88;;;3.60;;
68449;SDS011;55434;39.570;2.652;2023-02-01T07:40:39;18.52;;;4.20;;
68449;SDS011;55434;39.570;2.652;2023-02-01T07:43:05;15.67;;;3.80;;
68449;SDS011;55434;39.570;2.652;2023-02-01T07:45:33;14.95;;;3.80;;
68449;SDS011;55434;39.570;2.652;2023-02-01T07:48:00;15.43;;;3.58;;
68449;SDS011;55434;39.570;2.652;2023-02-01T07:50:27;15.85;;;4.20;;
68449;SDS011;55434;39.570;2.652;2023-02-01T07:52:58;14.77;;;3.88;;
68449;SDS011;55434;39.570;2.652;2023-02-01T07:55:27;18.30;;;4.07;;
68449;SDS011;55434;39.570;2.652;2023-02-01T07:57:56;15.93;;;4.60;;
68449;SDS011;55434;39.570;2.652;2023-02-01T08:00:22;19.17;;;4.18;;
68449;SDS011;55434;39.570;2.652;2023-02-01T08:03:06;16.17;;;5.07;;
68449;SDS011;55434;39.570;2.652;2023-02-01T08:05:32;16.17;;;4.60;;
68449;SDS011;55434;39.570;2.652;2023-02-01T08:07:58;19.13;;;5.13;;
68449;SDS011;55434;39.570;2.652;2023-02-01T08:10:25;17.05;;;4.65;;
68449;SDS011;55434;39.570;2.652;2023-02-01T08:12:51;23.00;;;5.13;;
68449;SDS011;55434;39.570;2.652;2023-02-01T08:15:17;21.65;;;6.70;;
68449;SDS011;55434;39.570;2.652;2023-02-01T08:17:49;19.07;;;5.40;;
68449;SDS011;55434;39.570;2.652;2023-02-01T08:20:16;18.02;;;5.13;;
68449;SDS011;55434;39.570;2.652;2023-02-01T08:22:43;25.05;;;5.40;;
68449;SDS011;55434;39.570;2.652;2023-02-01T08:25:09;21.73;;;5.60;;
68449;SDS011;55434;39.570;2.652;2023-02-01T08:27:36;26.15;;;6.30;;
68449;SDS011;55434;39.570;2.652;2023-02-01T08:30:04;21.30;;;6.30;;
68449;SDS011;55434;39.570;2.652;2023-02-01T08:32:32;21.98;;;5.90;;
68449;SDS011;55434;39.570;2.652;2023-02-01T08:34:58;18.13;;;5.63;;
68449;SDS011;55434;39.570;2.652;2023-02-01T08:37:24;20.57;;;5.53;;
68449;SDS011;55434;39.570;2.652;2023-02-01T08:39:50;22.88;;;5.70;;
68449;SDS011;55434;39.570;2.652;2023-02-01T08:42:16;14.00;;;5.17;;
68449;SDS011;55434;39.570;2.652;2023-02-01T08:45:00;17.67;;;5.45;;
68449;SDS011;55434;39.570;2.652;2023-02-01T08:47:27;19.83;;;5.00;;
68449;SDS011;55434;39.570;2.652;2023-02-01T08:49:53;17.77;;;5.85;;
68449;SDS011;55434;39.570;2.652;2023-02-01T08:52:19;19.67;;;6.40;;
68449;SDS011;55434;39.570;2.652;2023-02-01T08:54:45;17.97;;;6.47;;
68449;SDS011;55434;39.570;2.652;2023-02-01T08:57:11;16.30;;;6.13;;
68449;SDS011;55434;39.570;2.652;2023-02-01T08:59:37;23.42;;;5.85;;
68449;SDS011;55434;39.570;2.652;2023-02-01T09:02:03;31.33;;;9.57;;
68449;SDS011;55434;39.570;2.652;2023-02-01T09:04:28;50.85;;;10.98;;
68449;SDS011;55434;39.570;2.652;2023-02-01T09:06:54;33.77;;;8.93;;
68449;SDS011;55434;39.570;2.652;2023-02-01T09:09:23;32.63;;;8.48;;
68449;SDS011;55434;39.570;2.652;2023-02-01T09:11:49;22.50;;;7.20;;
68449;SDS011;55434;39.570;2.652;2023-02-01T09:14:16;25.03;;;8.33;;
68449;SDS011;55434;39.570;2.652;2023-02-01T09:16:42;21.15;;;6.50;;
68449;SDS011;55434;39.570;2.652;2023-02-01T09:19:07;21.58;;;7.07;;
68449;SDS011;55434;39.570;2.652;2023-02-01T09:21:34;20.08;;;7.68;;
68449;SDS011;55434;39.570;2.652;2023-02-01T09:23:59;21.63;;;7.40;;
68449;SDS011;55434;39.570;2.652;2023-02-01T09:26:28;23.60;;;7.43;;
68449;SDS011;55434;39.570;2.652;2023-02-01T09:28:54;22.25;;;7.32;;
68449;SDS011;55434;39.570;2.652;2023-02-01T09:31:19;27.20;;;7.70;;
68449;SDS011;55434;39.570;2.652;2023-02-01T09:33:46;22.10;;;7.45;;
68449;SDS011;55434;39.570;2.652;2023-02-01T09:36:12;21.08;;;7.20;;
68449;SDS011;55434;39.570;2.652;2023-02-01T09:38:38;16.70;;;6.67;;
68449;SDS011;55434;39.570;2.652;2023-02-01T09:43:59;25.40;;;8.23;;
68449;SDS011;55434;39.570;2.652;2023-02-01T09:46:36;23.90;;;7.63;;
68449;SDS011;55434;39.570;2.652;2023-02-01T09:49:08;17.73;;;6.33;;
68449;SDS011;55434;39.570;2.652;2023-02-01T09:51:41;17.95;;;6.80;;
68449;SDS011;55434;39.570;2.652;2023-02-01T09:56:46;18.70;;;7.20;;
68449;SDS011;55434;39.570;2.652;2023-02-01T10:02:09;20.40;;;7.03;;
68449;SDS011;55434;39.570;2.652;2023-02-01T10:04:38;17.05;;;5.97;;
68449;SDS011;55434;39.570;2.652;2023-02-01T10:07:20;15.50;;;4.78;;
68449;SDS011;55434;39.570;2.652;2023-02-01T10:28:52;11.52;;;3.45;;
68449;SDS011;55434;39.570;2.652;2023-02-01T10:31:22;10.65;;;3.45;;
68449;SDS011;55434;39.570;2.652;2023-02-01T10:34:07;15.70;;;3.05;;
68449;SDS011;55434;39.570;2.652;2023-02-01T10:39:18;12.07;;;2.27;;
68449;SDS011;55434;39.570;2.652;2023-02-01T10:41:44;10.43;;;2.30;;
68449;SDS011;55434;39.570;2.652;2023-02-01T10:44:14;9.65;;;2.67;;
68449;SDS011;55434;39.570;2.652;2023-02-01T10:46:49;13.65;;;3.17;;
68449;SDS011;55434;39.570;2.652;2023-02-01T10:49:51;9.00;;;2.57;;
68449;SDS011;55434;39.570;2.652;2023-02-01T10:52:15;7.95;;;2.08;;
68449;SDS011;55434;39.570;2.652;2023-02-01T10:54:44;10.32;;;2.33;;
68449;SDS011;55434;39.570;2.652;2023-02-01T10:57:19;8.10;;;2.30;;
68449;SDS011;55434;39.570;2.652;2023-02-01T10:59:53;7.78;;;2.60;;
68449;SDS011;55434;39.570;2.652;2023-02-01T11:02:25;6.60;;;2.07;;
68449;SDS011;55434;39.570;2.652;2023-02-01T11:05:03;7.70;;;2.03;;
68449;SDS011;55434;39.570;2.652;2023-02-01T11:07:34;7.57;;;2.45;;
68449;SDS011;55434;39.570;2.652;2023-02-01T11:10:01;8.45;;;2.03;;
68449;SDS011;55434;39.570;2.652;2023-02-01T11:15:01;9.43;;;3.13;;
68449;SDS011;55434;39.570;2.652;2023-02-01T11:17:43;9.93;;;2.55;;
68449;SDS011;55434;39.570;2.652;2023-02-01T11:20:15;10.00;;;2.78;;
68449;SDS011;55434;39.570;2.652;2023-02-01T11:23:03;8.38;;;2.22;;
68449;SDS011;55434;39.570;2.652;2023-02-01T11:25:29;9.25;;;2.40;;
68449;SDS011;55434;39.570;2.652;2023-02-01T11:27:57;7.73;;;2.60;;
68449;SDS011;55434;39.570;2.652;2023-02-01T11:30:34;6.50;;;2.45;;
68449;SDS011;55434;39.570;2.652;2023-02-01T11:33:13;8.18;;;3.30;;
68449;SDS011;55434;39.570;2.652;2023-02-01T11:36:50;7.28;;;2.53;;
68449;SDS011;55434;39.570;2.652;2023-02-01T11:44:39;8.88;;;2.53;;
68449;SDS011;55434;39.570;2.652;2023-02-01T11:47:20;6.15;;;2.40;;
68449;SDS011;55434;39.570;2.652;2023-02-01T11:50:05;7.38;;;2.17;;
68449;SDS011;55434;39.570;2.652;2023-02-01T12:00:59;7.38;;;2.00;;
68449;SDS011;55434;39.570;2.652;2023-02-01T12:14:14;7.53;;;2.70;;
68449;SDS011;55434;39.570;2.652;2023-02-01T12:22:33;8.55;;;3.33;;
68449;SDS011;55434;39.570;2.652;2023-02-01T12:33:21;5.63;;;1.83;;
68449;SDS011;55434;39.570;2.652;2023-02-01T12:41:40;5.95;;;2.15;;
68449;SDS011;55434;39.570;2.652;2023-02-01T12:52:45;7.72;;;2.00;;
68449;SDS011;55434;39.570;2.652;2023-02-01T12:55:19;36.00;;;12.07;;
68449;SDS011;55434;39.570;2.652;2023-02-01T12:57:49;7.83;;;2.13;;
68449;SDS011;55434;39.570;2.652;2023-02-01T13:00:30;9.60;;;3.28;;
68449;SDS011;55434;39.570;2.652;2023-02-01T13:03:07;8.20;;;2.40;;
68449;SDS011;55434;39.570;2.652;2023-02-01T13:08:43;5.85;;;1.60;;
68449;SDS011;55434;39.570;2.652;2023-02-01T13:11:31;5.73;;;1.70;;
68449;SDS011;55434;39.570;2.652;2023-02-01T13:16:56;16.05;;;6.95;;
68449;SDS011;55434;39.570;2.652;2023-02-01T13:19:30;7.38;;;1.48;;
68449;SDS011;55434;39.570;2.652;2023-02-01T13:22:17;5.28;;;1.40;;
68449;SDS011;55434;39.570;2.652;2023-02-01T13:27:28;8.77;;;1.50;;
68449;SDS011;55434;39.570;2.652;2023-02-01T13:30:03;7.05;;;1.50;;
68449;SDS011;55434;39.570;2.652;2023-02-01T13:44:29;7.20;;;1.40;;
68449;SDS011;55434;39.570;2.652;2023-02-01T13:47:02;7.97;;;1.25;;
68449;SDS011;55434;39.570;2.652;2023-02-01T13:49:37;18.33;;;5.13;;
68449;SDS011;55434;39.570;2.652;2023-02-01T13:52:04;8.93;;;1.93;;
68449;SDS011;55434;39.570;2.652;2023-02-01T13:54:31;8.65;;;1.73;;
68449;SDS011;55434;39.570;2.652;2023-02-01T13:57:00;6.20;;;1.50;;
68449;SDS011;55434;39.570;2.652;2023-02-01T14:07:36;14.45;;;4.60;;
68449;SDS011;55434;39.570;2.652;2023-02-01T14:13:05;5.57;;;0.80;;
68449;SDS011;55434;39.570;2.652;2023-02-01T14:24:17;8.20;;;1.70;;
68449;SDS011;55434;39.570;2.652;2023-02-01T14:26:50;4.03;;;0.80;;
68449;SDS011;55434;39.570;2.652;2023-02-01T14:29:34;3.92;;;0.70;;
68449;SDS011;55434;39.570;2.652;2023-02-01T14:34:39;19.80;;;4.15;;
68449;SDS011;55434;39.570;2.652;2023-02-01T14:56:27;4.95;;;0.70;;
68449;SDS011;55434;39.570;2.652;2023-02-01T15:01:06;5.80;;;1.00;;
68449;SDS011;55434;39.570;2.652;2023-02-01T15:06:40;5.70;;;0.80;;
68449;SDS011;55434;39.570;2.652;2023-02-01T15:09:18;4.45;;;1.02;;
68449;SDS011;55434;39.570;2.652;2023-02-01T15:11:54;5.65;;;0.75;;
68449;SDS011;55434;39.570;2.652;2023-02-01T15:14:32;5.43;;;0.90;;
68449;SDS011;55434;39.570;2.652;2023-02-01T15:17:20;5.57;;;1.20;;
68449;SDS011;55434;39.570;2.652;2023-02-01T15:19:55;5.95;;;1.15;;
68449;SDS011;55434;39.570;2.652;2023-02-01T15:22:23;6.05;;;1.05;;
68449;SDS011;55434;39.570;2.652;2023-02-01T15:24:55;6.93;;;1.00;;
68449;SDS011;55434;39.570;2.652;2023-02-01T15:27:28;5.43;;;0.80;;
68449;SDS011;55434;39.570;2.652;2023-02-01T15:30:08;4.28;;;0.88;;
68449;SDS011;55434;39.570;2.652;2023-02-01T15:32:44;11.02;;;0.90;;
68449;SDS011;55434;39.570;2.652;2023-02-01T15:35:34;7.38;;;1.00;;
68449;SDS011;55434;39.570;2.652;2023-02-01T15:41:09;4.33;;;0.60;;
68449;SDS011;55434;39.570;2.652;2023-02-01T15:49:04;5.70;;;0.93;;
68449;SDS011;55434;39.570;2.652;2023-02-01T15:51:43;5.43;;;1.02;;
68449;SDS011;55434;39.570;2.652;2023-02-01T15:54:17;6.50;;;1.00;;
68449;SDS011;55434;39.570;2.652;2023-02-01T15:57:00;6.80;;;1.00;;
68449;SDS011;55434;39.570;2.652;2023-02-01T15:59:42;5.78;;;1.10;;
68449;SDS011;55434;39.570;2.652;2023-02-01T16:08:19;5.30;;;1.17;;
68449;SDS011;55434;39.570;2.652;2023-02-01T16:10:48;5.82;;;1.20;;
68449;SDS011;55434;39.570;2.652;2023-02-01T16:13:18;4.20;;;1.02;;
68449;SDS011;55434;39.570;2.652;2023-02-01T16:15:49;8.55;;;1.85;;
68449;SDS011;55434;39.570;2.652;2023-02-01T16:18:15;7.47;;;1.70;;
68449;SDS011;55434;39.570;2.652;2023-02-01T16:20:43;7.33;;;1.67;;
68449;SDS011;55434;39.570;2.652;2023-02-01T16:23:10;5.63;;;1.33;;
68449;SDS011;55434;39.570;2.652;2023-02-01T16:25:36;6.65;;;1.60;;
68449;SDS011;55434;39.570;2.652;2023-02-01T16:28:05;5.78;;;1.38;;
68449;SDS011;55434;39.570;2.652;2023-02-01T16:30:31;6.68;;;1.27;;
68449;SDS011;55434;39.570;2.652;2023-02-01T16:33:00;7.93;;;1.30;;
68449;SDS011;55434;39.570;2.652;2023-02-01T16:35:34;5.40;;;1.40;;
68449;SDS011;55434;39.570;2.652;2023-02-01T16:38:02;5.97;;;1.23;;
68449;SDS011;55434;39.570;2.652;2023-02-01T16:40:41;5.25;;;0.90;;
68449;SDS011;55434;39.570;2.652;2023-02-01T16:43:12;7.03;;;1.17;;
68449;SDS011;55434;39.570;2.652;2023-02-01T16:45:41;9.40;;;1.70;;
68449;SDS011;55434;39.570;2.652;2023-02-01T16:50:51;7.35;;;1.30;;
68449;SDS011;55434;39.570;2.652;2023-02-01T16:53:20;5.47;;;1.17;;
68449;SDS011;55434;39.570;2.652;2023-02-01T16:55:47;7.75;;;1.20;;
68449;SDS011;55434;39.570;2.652;2023-02-01T16:58:15;6.57;;;1.23;;
68449;SDS011;55434;39.570;2.652;2023-02-01T17:00:47;9.00;;;1.15;;
68449;SDS011;55434;39.570;2.652;2023-02-01T17:03:14;7.72;;;1.50;;
68449;SDS011;55434;39.570;2.652;2023-02-01T17:05:46;9.57;;;1.70;;
68449;SDS011;55434;39.570;2.652;2023-02-01T17:08:37;10.32;;;2.50;;
68449;SDS011;55434;39.570;2.652;2023-02-01T17:11:06;10.17;;;2.73;;
68449;SDS011;55434;39.570;2.652;2023-02-01T17:13:33;8.05;;;2.15;;
68449;SDS011;55434;39.570;2.652;2023-02-01T17:16:13;6.63;;;1.75;;
68449;SDS011;55434;39.570;2.652;2023-02-01T17:18:45;9.02;;;2.40;;
68449;SDS011;55434;39.570;2.652;2023-02-01T17:21:19;12.23;;;2.78;;
68449;SDS011;55434;39.570;2.652;2023-02-01T17:23:45;7.83;;;1.90;;
68449;SDS011;55434;39.570;2.652;2023-02-01T17:26:11;9.10;;;1.83;;
68449;SDS011;55434;39.570;2.652;2023-02-01T17:28:40;7.47;;;1.47;;
68449;SDS011;55434;39.570;2.652;2023-02-01T17:31:05;9.50;;;1.60;;
68449;SDS011;55434;39.570;2.652;2023-02-01T17:33:35;6.03;;;1.65;;
68449;SDS011;55434;39.570;2.652;2023-02-01T17:36:03;12.67;;;2.80;;
68449;SDS011;55434;39.570;2.652;2023-02-01T17:38:30;10.68;;;2.20;;
68449;SDS011;55434;39.570;2.652;2023-02-01T17:40:57;7.95;;;2.35;;
68449;SDS011;55434;39.570;2.652;2023-02-01T17:43:23;10.63;;;3.07;;
68449;SDS011;55434;39.570;2.652;2023-02-01T17:48:28;8.07;;;2.65;;
68449;SDS011;55434;39.570;2.652;2023-02-01T17:50:53;8.10;;;2.77;;
68449;SDS011;55434;39.570;2.652;2023-02-01T17:53:23;8.20;;;3.20;;
68449;SDS011;55434;39.570;2.652;2023-02-01T17:55:53;11.15;;;4.00;;
68449;SDS011;55434;39.570;2.652;2023-02-01T17:58:22;8.48;;;3.10;;
68449;SDS011;55434;39.570;2.652;2023-02-01T18:00:49;10.55;;;3.40;;
68449;SDS011;55434;39.570;2.652;2023-02-01T18:03:28;9.77;;;3.30;;
68449;SDS011;55434;39.570;2.652;2023-02-01T18:05:57;12.13;;;3.35;;
68449;SDS011;55434;39.570;2.652;2023-02-01T18:08:25;11.63;;;3.72;;
68449;SDS011;55434;39.570;2.652;2023-02-01T18:10:54;13.07;;;4.70;;
68449;SDS011;55434;39.570;2.652;2023-02-01T18:13:23;12.38;;;4.47;;
68449;SDS011;55434;39.570;2.652;2023-02-01T18:15:49;14.33;;;5.20;;
68449;SDS011;55434;39.570;2.652;2023-02-01T18:18:15;14.63;;;5.43;;
68449;SDS011;55434;39.570;2.652;2023-02-01T18:20:41;16.70;;;5.17;;